This is the latest recevied weather packets stored in our database for station/object KC7RJK-2. If no packets are shown the sender has not sent any weather packets the latest 1 day(s).
| Time | Temp. | Humidity | Pressure | Rain* | Wind** | Luminosity | Snow |
|---|---|---|---|---|---|---|---|
| 1778053809 | 12.78° C | 93% | 1017.8 hPa | 0 mm | - | - | - |
| 1778052609 | 12.78° C | 93% | 1017.7 hPa | 0 mm | - | - | - |
| 1778051410 | 12.78° C | 93% | 1017.6 hPa | 0 mm | - | - | - |
| 1778050812 | 12.78° C | 93% | 1017.5 hPa | 0 mm | - | - | - |
| 1778049611 | 12.78° C | 93% | 1017.5 hPa | 0 mm | - | - | - |
| 1778049010 | 12.78° C | 94% | 1017.4 hPa | 0 mm | - | - | - |
| 1778048410 | 12.22° C | 93% | 1017.3 hPa | 0 mm | - | - | - |
| 1778047810 | 12.22° C | 93% | 1017.1 hPa | 0 mm | - | - | - |
| 1778047214 | 12.22° C | 92% | 1017.1 hPa | 0 mm | - | - | - |
| 1778044810 | 12.78° C | 90% | 1016.6 hPa | 0 mm | - | - | - |
| 1778044209 | 12.78° C | 90% | 1016.5 hPa | 0 mm | - | - | - |
| 1778043609 | 12.78° C | 90% | 1016.5 hPa | 0 mm | - | - | - |
| 1778042411 | 13.33° C | 88% | 1016.3 hPa | 0 mm | - | - | - |
| 1778041811 | 13.33° C | 88% | 1016.1 hPa | 0 mm | - | - | - |
| 1778040609 | 13.89° C | 86% | 1016 hPa | 0 mm | - | - | - |
| 1778039409 | 14.44° C | 84% | 1015.7 hPa | 0 mm | - | - | - |
| 1778038809 | 15° C | 83% | 1015.5 hPa | 0 mm | - | - | - |
| 1778038209 | 15.56° C | 81% | 1015.5 hPa | 0 mm | - | - | - |
| 1778037009 | 16.11° C | 79% | 1015.3 hPa | 0 mm | - | - | - |
| 1778035809 | 17.22° C | 77% | 1015.2 hPa | 0 mm | - | - | - |
| 1778034010 | 18.33° C | 74% | 1015 hPa | 0 mm | - | - | - |
| 1778033409 | 18.89° C | 73% | 1015 hPa | 0 mm | - | - | - |
| 1778032809 | 20° C | 69% | 1015 hPa | 0 mm | - | - | - |
| 1778032208 | 20.56° C | 69% | 1014.9 hPa | 0 mm | - | - | - |
| 1778031608 | 20.56° C | 69% | 1014.8 hPa | 0 mm | - | - | - |
* Rain latest hour (hover to see other rain measurements)
** Current wind speed in m/s (hover to see current wind gust speed)